createdAt,value
2018-02-04T00:00:59.914Z,35.93
2018-02-04T00:03:27.432Z,41.53
2018-02-04T00:05:54.933Z,39.43
2018-02-04T00:08:22.422Z,38.73
2018-02-04T00:10:49.924Z,35.33
2018-02-04T00:13:17.431Z,47.73
2018-02-04T00:15:44.921Z,50.93
2018-02-04T00:18:12.394Z,39.33
2018-02-04T00:20:39.879Z,42.33
2018-02-04T00:23:08.131Z,47.63
2018-02-04T00:25:35.606Z,35.77
2018-02-04T00:28:03.855Z,32.77
2018-02-04T00:30:31.334Z,24.83
2018-02-04T00:32:58.817Z,24.33
2018-02-04T00:35:26.281Z,24.77
2018-02-04T00:37:53.770Z,30.27
2018-02-04T00:40:21.256Z,20.47
2018-02-04T00:42:48.735Z,17.20
2018-02-04T00:45:16.978Z,16.63
2018-02-04T00:47:44.458Z,16.40
2018-02-04T00:50:11.926Z,14.80
2018-02-04T00:52:40.170Z,14.43
2018-02-04T00:55:07.663Z,11.57
2018-02-04T00:57:35.901Z,13.27
2018-02-04T01:00:03.374Z,14.53
2018-02-04T01:02:30.875Z,13.03
2018-02-04T01:04:58.344Z,13.30
2018-02-04T01:07:25.810Z,11.80
2018-02-04T01:09:53.282Z,13.57
2018-02-04T01:12:20.750Z,14.00
2018-02-04T01:14:48.219Z,11.20
2018-02-04T01:17:15.687Z,9.00
2018-02-04T01:19:43.152Z,9.37
2018-02-04T01:22:11.405Z,9.70
2018-02-04T01:24:38.866Z,8.07
2018-02-04T01:27:06.340Z,7.70
2018-02-04T01:29:33.807Z,9.80
2018-02-04T01:32:02.051Z,7.60
2018-02-04T01:34:29.519Z,10.13
2018-02-04T01:36:57.003Z,10.93
2018-02-04T01:39:25.236Z,9.30
2018-02-04T01:41:52.719Z,9.37
2018-02-04T01:44:20.191Z,8.70
2018-02-04T01:46:47.664Z,9.10
2018-02-04T01:49:15.127Z,8.63
2018-02-04T01:51:42.602Z,9.40
2018-02-04T01:54:10.078Z,8.70
2018-02-04T01:56:37.555Z,9.30
2018-02-04T01:59:05.024Z,12.17
2018-02-04T02:01:32.499Z,9.80
2018-02-04T02:04:00.748Z,9.63
2018-02-04T02:06:28.639Z,10.80
2018-02-04T02:08:56.883Z,9.37
2018-02-04T02:11:24.341Z,10.57
2018-02-04T02:13:51.803Z,8.20
2018-02-04T02:16:19.274Z,11.30
2018-02-04T02:18:46.751Z,9.43
2018-02-04T02:21:14.990Z,9.00
2018-02-04T02:23:42.472Z,12.33
2018-02-04T02:26:09.931Z,9.43
2018-02-04T02:28:37.408Z,9.63
2018-02-04T02:31:05.638Z,11.80
2018-02-04T02:33:33.118Z,11.60
2018-02-04T02:36:00.587Z,8.27
2018-02-04T02:38:28.826Z,9.20
2018-02-04T02:40:56.286Z,8.90
2018-02-04T02:43:23.768Z,12.50
2018-02-04T02:45:51.298Z,9.93
2018-02-04T02:48:18.782Z,9.23
2018-02-04T02:50:46.234Z,9.83
2018-02-04T02:53:13.719Z,9.60
2018-02-04T02:55:41.943Z,9.93
2018-02-04T02:58:09.432Z,10.80
2018-02-04T03:00:36.894Z,7.83
2018-02-04T03:03:04.366Z,11.33
2018-02-04T03:05:32.602Z,9.97
2018-02-04T03:08:00.364Z,10.43
2018-02-04T03:10:27.830Z,10.03
2018-02-04T03:12:55.298Z,8.60
2018-02-04T03:15:22.755Z,9.40
2018-02-04T03:17:50.221Z,8.93
2018-02-04T03:20:17.687Z,10.50
2018-02-04T03:22:45.167Z,9.93
2018-02-04T03:25:13.402Z,10.60
2018-02-04T03:27:40.873Z,9.53
2018-02-04T03:30:08.357Z,9.37
2018-02-04T03:32:36.591Z,9.67
2018-02-04T03:35:04.059Z,9.67
2018-02-04T03:37:31.538Z,12.40
2018-02-04T03:39:59.766Z,11.27
2018-02-04T03:42:27.243Z,10.13
2018-02-04T03:44:54.711Z,11.83
2018-02-04T03:47:22.194Z,10.73
2018-02-04T03:49:50.426Z,10.93
2018-02-04T03:52:17.898Z,12.77
2018-02-04T03:54:45.358Z,9.13
2018-02-04T03:57:12.840Z,9.47
2018-02-04T03:59:41.070Z,10.23
2018-02-04T04:02:08.537Z,9.83
2018-02-04T04:04:36.006Z,10.60
2018-02-04T04:07:03.502Z,11.90
2018-02-04T04:09:30.986Z,11.93
2018-02-04T04:11:58.450Z,13.30
2018-02-04T04:14:25.926Z,13.93
2018-02-04T04:16:53.401Z,13.23
2018-02-04T04:19:20.874Z,14.13
2018-02-04T04:21:48.335Z,12.50
2018-02-04T04:24:16.584Z,13.83
2018-02-04T04:26:44.046Z,13.00
2018-02-04T04:29:11.527Z,14.60
2018-02-04T04:31:38.992Z,12.70
2018-02-04T04:34:07.238Z,14.47
2018-02-04T04:36:34.701Z,12.93
2018-02-04T04:39:02.178Z,14.33
2018-02-04T04:41:30.424Z,12.60
2018-02-04T04:43:57.899Z,15.70
2018-02-04T04:46:25.367Z,14.07
2018-02-04T04:48:52.852Z,12.63
2018-02-04T04:51:21.080Z,14.67
2018-02-04T04:53:48.556Z,12.90
2018-02-04T04:56:16.026Z,13.40
2018-02-04T04:58:44.271Z,13.80
2018-02-04T05:01:11.742Z,17.40
2018-02-04T05:03:39.226Z,16.83
2018-02-04T05:06:07.468Z,19.37
2018-02-04T05:08:34.946Z,16.60
2018-02-04T05:11:02.419Z,14.93
2018-02-04T05:13:30.661Z,17.77
2018-02-04T05:15:58.144Z,15.60
2018-02-04T05:18:26.387Z,17.70
2018-02-04T05:20:53.851Z,17.03
2018-02-04T05:23:21.334Z,17.37
2018-02-04T05:25:48.789Z,18.37
2018-02-04T05:28:17.030Z,17.83
2018-02-04T05:30:44.493Z,19.07
2018-02-04T05:33:11.971Z,16.03
2018-02-04T05:35:39.438Z,19.30
2018-02-04T05:38:07.683Z,20.53
2018-02-04T05:40:35.167Z,19.40
2018-02-04T05:43:02.644Z,19.57
2018-02-04T05:45:30.884Z,18.80
2018-02-04T05:47:58.368Z,19.63
2018-02-04T05:50:26.614Z,22.27
2018-02-04T05:52:54.092Z,18.67
2018-02-04T05:55:21.563Z,18.40
2018-02-04T05:57:49.822Z,19.40
2018-02-04T06:00:17.283Z,22.50
2018-02-04T06:02:44.758Z,19.90
2018-02-04T06:05:12.995Z,18.60
2018-02-04T06:07:41.179Z,22.57
2018-02-04T06:10:08.656Z,23.57
2018-02-04T06:12:36.893Z,23.47
2018-02-04T06:15:04.366Z,22.50
2018-02-04T06:17:31.842Z,23.03
2018-02-04T06:19:59.315Z,21.20
2018-02-04T06:22:27.551Z,20.70
2018-02-04T06:24:55.030Z,19.50
2018-02-04T06:27:22.504Z,23.93
2018-02-04T06:29:50.750Z,28.10
2018-02-04T06:32:18.219Z,26.03
2018-02-04T06:34:45.695Z,22.13
2018-02-04T06:37:13.931Z,28.70
2018-02-04T06:39:41.406Z,26.07
2018-02-04T06:42:08.874Z,27.97
2018-02-04T06:44:36.353Z,29.80
2018-02-04T06:47:04.592Z,30.83
2018-02-04T06:49:32.826Z,25.77
2018-02-04T06:52:00.299Z,26.53
2018-02-04T06:54:27.942Z,24.37
2018-02-04T06:56:55.410Z,27.93
2018-02-04T06:59:22.902Z,35.13
2018-02-04T07:01:50.384Z,40.00
2018-02-04T07:04:17.866Z,45.30
2018-02-04T07:06:45.335Z,35.17
2018-02-04T07:09:12.810Z,33.40
2018-02-04T07:11:40.282Z,34.93
2018-02-04T07:14:07.767Z,29.13
2018-02-04T07:16:35.239Z,27.67
2018-02-04T07:19:03.478Z,22.27
2018-02-04T07:21:30.962Z,22.33
2018-02-04T07:23:59.206Z,20.77
2018-02-04T07:26:26.687Z,25.03
2018-02-04T07:28:54.168Z,22.83
2018-02-04T07:31:22.397Z,24.27
2018-02-04T07:33:49.986Z,24.07
2018-02-04T07:36:17.547Z,28.27
2018-02-04T07:38:45.028Z,26.17
2018-02-04T07:41:13.263Z,30.57
2018-02-04T07:43:40.745Z,31.67
2018-02-04T07:46:08.207Z,24.83
2018-02-04T07:48:35.686Z,21.87
2018-02-04T07:51:03.923Z,26.37
2018-02-04T07:53:31.508Z,32.10
2018-02-04T07:55:59.760Z,27.33
2018-02-04T07:58:27.330Z,31.70
2018-02-04T08:00:54.874Z,34.07
2018-02-04T08:03:22.355Z,25.00
2018-02-04T08:05:49.832Z,26.40
2018-02-04T08:08:18.078Z,33.00
2018-02-04T08:10:45.551Z,27.23
2018-02-04T08:13:13.819Z,37.00
2018-02-04T08:15:41.307Z,30.50
2018-02-04T08:18:09.556Z,32.73
2018-02-04T08:20:37.098Z,28.53
2018-02-04T08:23:04.567Z,26.03
2018-02-04T08:25:32.050Z,29.23
2018-02-04T08:28:00.282Z,25.17
2018-02-04T08:30:27.862Z,23.03
2018-02-04T08:32:55.336Z,27.90
2018-02-04T08:35:23.610Z,30.60
2018-02-04T08:37:51.080Z,24.77
2018-02-04T08:40:19.319Z,24.83
2018-02-04T08:42:46.898Z,28.80
2018-02-04T08:45:14.370Z,23.77
2018-02-04T08:47:42.735Z,25.90
2018-02-04T08:50:10.210Z,26.30
2018-02-04T08:52:37.686Z,26.13
2018-02-04T08:55:05.193Z,27.80
2018-02-04T08:57:32.670Z,25.80
2018-02-04T09:00:01.652Z,25.17
2018-02-04T09:02:29.223Z,25.43
2018-02-04T09:04:56.700Z,25.87
2018-02-04T09:07:24.953Z,27.17
2018-02-04T09:09:52.431Z,29.20
2018-02-04T09:12:20.661Z,23.73
2018-02-04T09:14:48.138Z,26.53
2018-02-04T09:17:15.612Z,31.33
2018-02-04T09:19:43.873Z,24.07
2018-02-04T09:22:11.346Z,29.07
2018-02-04T09:24:39.598Z,25.70
2018-02-04T09:27:07.070Z,26.00
2018-02-04T09:29:34.550Z,27.50
2018-02-04T09:32:02.796Z,24.10
2018-02-04T09:34:30.270Z,24.80
2018-02-04T09:36:59.253Z,23.70
2018-02-04T09:39:26.810Z,24.33
2018-02-04T09:41:54.280Z,24.00
2018-02-04T09:44:21.770Z,25.20
2018-02-04T09:46:49.997Z,22.10
2018-02-04T09:49:17.570Z,22.40
2018-02-04T09:51:45.131Z,23.30
2018-02-04T09:54:12.609Z,24.43
2018-02-04T09:56:40.869Z,21.13
2018-02-04T09:59:09.222Z,22.30
2018-02-04T10:01:36.695Z,21.17
2018-02-04T10:04:05.136Z,19.50
2018-02-04T10:06:32.618Z,21.40
2018-02-04T10:09:00.250Z,20.90
2018-02-04T10:11:28.150Z,23.40
2018-02-04T10:13:55.622Z,20.90
2018-02-04T10:16:23.999Z,20.93
2018-02-04T10:18:51.771Z,22.43
2018-02-04T10:21:20.209Z,20.23
2018-02-04T10:23:48.288Z,23.70
2018-02-04T10:26:15.758Z,20.80
2018-02-04T10:28:44.424Z,20.97
2018-02-04T10:31:12.011Z,19.40
2018-02-04T10:33:39.558Z,21.43
2018-02-04T10:36:07.359Z,17.23
2018-02-04T10:38:35.102Z,15.97
2018-02-04T10:41:02.632Z,16.83
2018-02-04T10:43:30.096Z,18.67
2018-02-04T10:45:57.596Z,16.77
2018-02-04T10:48:26.089Z,20.13
2018-02-04T10:50:59.159Z,17.17
2018-02-04T10:53:26.630Z,16.73
2018-02-04T10:55:54.114Z,18.70
2018-02-04T10:58:21.634Z,18.03
2018-02-04T11:00:49.155Z,17.43
2018-02-04T11:03:16.629Z,15.43
2018-02-04T11:05:44.102Z,13.93
2018-02-04T11:08:11.587Z,15.00
2018-02-04T11:10:39.994Z,17.93
2018-02-04T11:13:07.469Z,14.20
2018-02-04T11:15:34.948Z,13.17
2018-02-04T11:18:02.461Z,13.80
2018-02-04T11:20:30.495Z,15.60
2018-02-04T11:22:57.990Z,14.80
2018-02-04T11:25:26.297Z,15.77
2018-02-04T11:27:53.766Z,18.50
2018-02-04T11:30:21.402Z,18.07
2018-02-04T11:32:48.884Z,19.47
2018-02-04T11:35:16.360Z,18.83
2018-02-04T11:37:43.845Z,17.33
2018-02-04T11:40:11.315Z,20.87
2018-02-04T11:42:39.547Z,19.30
2018-02-04T11:45:07.038Z,20.80
2018-02-04T11:47:35.275Z,18.13
2018-02-04T11:50:02.755Z,17.27
2018-02-04T11:52:30.225Z,14.80
2018-02-04T11:54:57.715Z,12.93
2018-02-04T11:57:25.185Z,11.70
2018-02-04T11:59:52.711Z,9.17
2018-02-04T12:02:20.182Z,10.43
2018-02-04T12:04:48.414Z,11.20
2018-02-04T12:07:15.926Z,12.90
2018-02-04T12:09:43.355Z,13.50
2018-02-04T12:12:10.818Z,9.77
2018-02-04T12:14:39.063Z,14.37
2018-02-04T12:17:06.531Z,9.27
2018-02-04T12:19:34.003Z,13.13
2018-02-04T12:22:01.468Z,13.03
2018-02-04T12:24:29.720Z,11.00
2018-02-04T12:26:57.186Z,11.37
2018-02-04T12:29:24.655Z,9.30
2018-02-04T12:31:52.123Z,11.00
2018-02-04T12:34:20.368Z,11.23
2018-02-04T12:36:47.841Z,11.77
2018-02-04T12:39:15.298Z,11.00
2018-02-04T12:41:42.819Z,10.90
2018-02-04T12:44:10.290Z,9.67
2018-02-04T12:46:37.774Z,10.07
2018-02-04T12:49:05.234Z,8.60
2018-02-04T12:51:32.705Z,11.03
2018-02-04T12:54:00.933Z,11.27
2018-02-04T12:56:28.410Z,11.73
2018-02-04T12:58:55.878Z,9.57
2018-02-04T13:01:23.347Z,10.93
2018-02-04T13:03:50.815Z,13.33
2018-02-04T13:06:19.068Z,9.67
2018-02-04T13:08:46.528Z,10.53
2018-02-04T13:11:14.014Z,10.67
2018-02-04T13:13:42.244Z,10.03
2018-02-04T13:16:09.719Z,9.83
2018-02-04T13:18:37.197Z,12.07
2018-02-04T13:21:05.442Z,10.00
2018-02-04T13:23:32.914Z,25.00
2018-02-04T13:26:00.394Z,17.87
2018-02-04T13:28:28.633Z,15.53
2018-02-04T13:30:56.123Z,22.67
2018-02-04T13:33:24.360Z,11.83
2018-02-04T13:35:51.834Z,16.57
2018-02-04T13:38:19.310Z,12.60
2018-02-04T13:40:46.791Z,14.17
2018-02-04T13:43:15.023Z,14.13
2018-02-04T13:45:43.267Z,15.20
2018-02-04T13:48:10.744Z,14.43
2018-02-04T13:50:38.214Z,13.07
2018-02-04T13:53:05.693Z,14.30
2018-02-04T13:55:33.172Z,16.80
2018-02-04T13:58:01.447Z,15.67
2018-02-04T14:00:29.696Z,11.57
2018-02-04T14:02:57.174Z,14.17
2018-02-04T14:05:25.419Z,14.33
2018-02-04T14:07:52.887Z,13.47
2018-02-04T14:10:20.366Z,13.53
2018-02-04T14:12:48.602Z,23.30
2018-02-04T14:15:16.086Z,23.67
2018-02-04T14:17:43.558Z,24.03
2018-02-04T14:20:11.801Z,14.03
2018-02-04T14:22:39.274Z,17.47
2018-02-04T14:25:06.746Z,12.00
2018-02-04T14:27:34.998Z,18.60
2018-02-04T14:30:02.677Z,15.10
2018-02-04T14:32:30.157Z,14.30
2018-02-04T14:34:58.390Z,14.67
2018-02-04T14:37:25.867Z,11.80
2018-02-04T14:39:53.335Z,13.10
2018-02-04T14:42:20.814Z,28.50
2018-02-04T14:44:48.283Z,23.70
2018-02-04T14:47:15.773Z,12.83
2018-02-04T14:49:43.353Z,19.07
2018-02-04T14:52:10.847Z,12.57
2018-02-04T14:54:38.319Z,11.97
2018-02-04T14:57:05.829Z,16.33
2018-02-04T14:59:33.337Z,17.87
2018-02-04T15:02:00.823Z,12.87
2018-02-04T15:04:28.309Z,13.03
2018-02-04T15:06:55.787Z,17.77
2018-02-04T15:09:24.022Z,28.30
2018-02-04T15:11:52.267Z,30.83
2018-02-04T15:14:19.743Z,14.10
2018-02-04T15:16:47.226Z,13.17
2018-02-04T15:19:14.695Z,14.60
2018-02-04T15:21:42.173Z,15.17
2018-02-04T15:24:10.411Z,14.03
2018-02-04T15:26:37.892Z,13.77
2018-02-04T15:29:05.362Z,13.80
2018-02-04T15:31:33.603Z,11.30
2018-02-04T15:34:01.095Z,12.97
2018-02-04T15:36:29.338Z,13.20
2018-02-04T15:38:56.816Z,14.80
2018-02-04T15:41:24.295Z,13.50
2018-02-04T15:43:52.534Z,11.00
2018-02-04T15:46:20.014Z,12.43
2018-02-04T15:48:47.475Z,15.20
2018-02-04T15:51:14.962Z,16.17
2018-02-04T15:53:42.432Z,23.33
2018-02-04T15:56:09.910Z,19.20
2018-02-04T15:58:37.378Z,27.90
2018-02-04T16:01:04.854Z,29.50
2018-02-04T16:03:32.319Z,39.40
2018-02-04T16:05:59.806Z,43.27
2018-02-04T16:08:27.305Z,35.90
2018-02-04T16:10:54.786Z,34.53
2018-02-04T16:13:22.258Z,39.30
2018-02-04T16:15:50.515Z,26.83
2018-02-04T16:18:18.011Z,21.10
2018-02-04T16:20:46.243Z,16.90
2018-02-04T16:23:13.771Z,19.80
2018-02-04T16:25:41.255Z,14.37
2018-02-04T16:28:08.727Z,14.83
2018-02-04T16:30:36.221Z,16.50
2018-02-04T16:33:04.473Z,21.83
2018-02-04T16:35:31.953Z,15.80
2018-02-04T16:38:00.195Z,15.43
2018-02-04T16:40:27.654Z,16.73
2018-02-04T16:42:55.127Z,16.73
2018-02-04T16:45:22.598Z,52.30
2018-02-04T16:47:50.840Z,37.30
2018-02-04T16:50:18.329Z,31.90
2018-02-04T16:52:45.802Z,30.43
2018-02-04T16:55:14.036Z,21.03
2018-02-04T16:57:41.515Z,16.33
2018-02-04T17:00:08.999Z,15.27
2018-02-04T17:02:36.487Z,15.23
2018-02-04T17:05:03.953Z,16.30
2018-02-04T17:07:31.443Z,17.90
2018-02-04T17:09:58.921Z,18.93
2018-02-04T17:12:27.171Z,17.20
2018-02-04T17:14:54.630Z,14.43
2018-02-04T17:17:22.940Z,15.00
2018-02-04T17:19:51.179Z,14.97
2018-02-04T17:22:18.655Z,15.43
2018-02-04T17:24:46.890Z,17.40
2018-02-04T17:27:14.380Z,15.23
2018-02-04T17:29:41.846Z,18.73
2018-02-04T17:32:09.314Z,16.90
2018-02-04T17:34:37.565Z,17.73
2018-02-04T17:37:05.042Z,15.70
2018-02-04T17:39:32.512Z,14.87
2018-02-04T17:42:00.755Z,18.27
2018-02-04T17:44:28.222Z,16.07
2018-02-04T17:46:55.718Z,19.60
2018-02-04T17:49:23.192Z,17.83
2018-02-04T17:51:50.679Z,16.40
2018-02-04T17:54:18.156Z,16.07
2018-02-04T17:56:45.647Z,15.52
2018-02-04T17:59:13.136Z,16.35
2018-02-04T18:01:40.653Z,15.70
2018-02-04T18:04:08.885Z,14.37
2018-02-04T18:06:36.381Z,17.93
2018-02-04T18:09:04.624Z,15.87
2018-02-04T18:11:32.131Z,15.10
2018-02-04T18:14:00.362Z,15.27
2018-02-04T18:16:27.834Z,15.07
2018-02-04T18:18:56.094Z,17.08
2018-02-04T18:21:23.602Z,18.33
2018-02-04T18:23:51.090Z,16.83
2018-02-04T18:26:18.570Z,19.67
2018-02-04T18:28:46.065Z,16.60
2018-02-04T18:31:14.354Z,20.13
2018-02-04T18:33:41.837Z,19.45
2018-02-04T18:36:09.317Z,18.20
2018-02-04T18:38:36.821Z,19.17
2018-02-04T18:41:04.336Z,17.65
2018-02-04T18:43:31.835Z,18.98
2018-02-04T18:45:59.322Z,25.30
2018-02-04T18:48:27.638Z,21.87
2018-02-04T18:50:55.170Z,20.30
2018-02-04T18:53:22.655Z,23.52
2018-02-04T18:55:50.177Z,24.40
2018-02-04T18:58:17.666Z,24.25
2018-02-04T19:00:45.143Z,20.58
2018-02-04T19:03:12.642Z,20.50
2018-02-04T19:05:40.119Z,18.83
2018-02-04T19:08:07.617Z,21.40
2018-02-04T19:10:35.914Z,19.20
2018-02-04T19:13:03.353Z,17.83
2018-02-04T19:15:31.656Z,17.37
2018-02-04T19:17:59.158Z,18.02
2018-02-04T19:20:26.638Z,16.17
2018-02-04T19:22:54.131Z,19.70
2018-02-04T19:25:21.608Z,17.33
2018-02-04T19:27:49.094Z,20.42
2018-02-04T19:30:16.566Z,18.95
2018-02-04T19:32:44.061Z,17.85
2018-02-04T19:35:12.303Z,17.58
2018-02-04T19:37:39.787Z,19.60
2018-02-04T19:40:08.067Z,21.80
2018-02-04T19:42:35.522Z,17.87
2018-02-04T19:45:03.772Z,19.02
2018-02-04T19:47:31.274Z,19.37
2018-02-04T19:49:58.753Z,21.92
2018-02-04T19:52:26.248Z,18.67
2018-02-04T19:54:53.719Z,17.70
2018-02-04T19:57:21.207Z,18.17
2018-02-04T19:59:48.726Z,23.80
2018-02-04T20:02:16.216Z,21.08
2018-02-04T20:04:43.695Z,21.17
2018-02-04T20:07:11.189Z,22.75
2018-02-04T20:09:38.662Z,22.55
2018-02-04T20:12:06.148Z,19.55
2018-02-04T20:14:33.630Z,25.85
2018-02-04T20:17:01.110Z,23.15
2018-02-04T20:19:28.600Z,25.67
2018-02-04T20:21:56.076Z,23.85
2018-02-04T20:24:24.353Z,22.37
2018-02-04T20:26:52.597Z,24.92
2018-02-04T20:29:20.086Z,22.83
2018-02-04T20:31:48.331Z,28.23
2018-02-04T20:34:27.725Z,25.40
2018-02-04T20:36:55.207Z,27.13
2018-02-04T20:39:22.684Z,23.05
2018-02-04T20:41:50.156Z,32.25
2018-02-04T20:44:17.638Z,27.17
2018-02-04T20:46:45.115Z,32.05
2018-02-04T20:49:12.603Z,29.80
2018-02-04T20:51:40.076Z,31.10
2018-02-04T20:54:07.558Z,24.35
2018-02-04T20:56:35.798Z,27.95
2018-02-04T20:59:03.292Z,28.02
2018-02-04T21:01:31.528Z,27.20
2018-02-04T21:03:59.061Z,27.27
2018-02-04T21:06:27.272Z,24.33
2018-02-04T21:08:54.767Z,29.42
2018-02-04T21:11:23.006Z,30.45
2018-02-04T21:13:50.495Z,31.27
2018-02-04T21:16:18.730Z,29.52
2018-02-04T21:18:46.222Z,27.98
2018-02-04T21:21:14.457Z,31.45
2018-02-04T21:23:41.946Z,30.83
2018-02-04T21:26:09.428Z,25.88
2018-02-04T21:28:37.686Z,24.75
2018-02-04T21:31:05.931Z,27.02
2018-02-04T21:33:33.414Z,24.65
2018-02-04T21:36:00.894Z,25.90
2018-02-04T21:38:29.154Z,23.92
2018-02-04T21:40:56.660Z,24.00
2018-02-04T21:43:24.149Z,26.15
2018-02-04T21:45:51.620Z,28.60
2018-02-04T21:48:19.119Z,26.80
2018-02-04T21:50:46.594Z,38.00
2018-02-04T21:53:14.086Z,30.00
2018-02-04T21:55:41.569Z,31.77
2018-02-04T21:58:09.833Z,31.73
2018-02-04T22:00:37.318Z,29.15
2018-02-04T22:03:04.815Z,30.33
2018-02-04T22:05:32.310Z,32.28
2018-02-04T22:07:59.794Z,32.30
2018-02-04T22:10:28.040Z,30.50
2018-02-04T22:12:55.521Z,33.78
2018-02-04T22:15:23.776Z,30.95
2018-02-04T22:17:51.299Z,35.35
2018-02-04T22:20:18.760Z,31.95
2018-02-04T22:22:46.231Z,34.80
2018-02-04T22:25:13.717Z,37.10
2018-02-04T22:27:41.968Z,31.58
2018-02-04T22:30:09.486Z,29.52
2018-02-04T22:32:36.979Z,31.35
2018-02-04T22:35:04.467Z,31.90
2018-02-04T22:37:32.714Z,31.30
2018-02-04T22:40:00.219Z,32.70
2018-02-04T22:42:28.460Z,33.53
2018-02-04T22:44:55.950Z,31.15
2018-02-04T22:47:24.188Z,32.35
2018-02-04T22:49:51.687Z,30.80
2018-02-04T22:52:19.953Z,27.92
2018-02-04T22:54:48.218Z,25.45
2018-02-04T22:57:15.694Z,30.60
2018-02-04T22:59:43.200Z,28.07
2018-02-04T23:02:10.678Z,25.42
2018-02-04T23:04:38.222Z,25.50
2018-02-04T23:07:06.416Z,25.17
2018-02-04T23:09:33.890Z,24.10
2018-02-04T23:12:01.364Z,22.77
2018-02-04T23:14:29.615Z,25.20
2018-02-04T23:16:57.086Z,26.07
2018-02-04T23:19:25.339Z,25.13
2018-02-04T23:21:52.819Z,22.10
2018-02-04T23:24:20.295Z,21.93
2018-02-04T23:26:48.534Z,21.60
2018-02-04T23:29:16.023Z,22.60
2018-02-04T23:31:44.275Z,22.67
2018-02-04T23:34:11.762Z,20.67
2018-02-04T23:36:40.007Z,18.03
2018-02-04T23:39:07.487Z,25.30
2018-02-04T23:41:35.722Z,26.07
2018-02-04T23:44:03.203Z,22.37
2018-02-04T23:46:30.674Z,23.43
2018-02-04T23:48:58.927Z,20.07
2018-02-04T23:51:26.398Z,20.30
2018-02-04T23:53:53.876Z,23.23
2018-02-04T23:56:22.118Z,22.53
2018-02-04T23:58:49.595Z,23.50
